Terminal Aerodrome Forecast
Issued by NWS

Home | Current Version | Previous Version | Text Only | Print | Product List | Glossary On
Versions: 1 2 3 4 5 6 7 8 9 10 11 12 13 14 15 16 17 18 19 20 21 22 23 24 25 26 27 28 29 30 31 32 33 34 35 36 37 38
000
FTUS46 KPQR 281132
TAFONP
TAF
KONP 281132Z 2812/2912 34003KT P6SM OVC019
     FM281900 33007KT P6SM BKN020
     FM282200 33011G16KT P6SM SCT020
     FM290300 34011KT P6SM BKN015=

USA.gov is the U.S. government's official web portal to all federal, state and local government web resources and services.